Time;durP1;ratioP1;P1;durP2;ratioP2;P2;SDS_P1;SDS_P2;PMS_P1;PMS_P2;Temp;Humidity;BMP_temperature;BMP_pressure;BME280_temperature;BME280_humidity;BME280_pressure;Samples;Min_cycle;Max_cycle;Signal;HPM_P1;HPM_P2
2022/06/28 00:02:00;;;;;;;0.47;0.30;;;18.90;88.20;;;;;;5138083;27;20821;-71
2022/06/28 00:04:27;;;;;;;0.50;0.30;;;18.80;95.80;;;;;;5138057;27;20538;-72
2022/06/28 00:06:54;;;;;;;0.40;0.20;;;18.80;99.90;;;;;;5138165;27;20512;-71
2022/06/28 00:09:23;;;;;;;0.50;0.30;;;18.90;99.90;;;;;;5138626;27;20520;-71
2022/06/28 00:11:50;;;;;;;0.67;0.30;;;18.90;99.90;;;;;;5139126;27;20479;-70
2022/06/28 00:17:02;;;;;;;0.40;0.20;;;18.80;99.90;;;;;;5138580;27;20467;-73
2022/06/28 00:19:29;;;;;;;1.00;0.27;;;18.90;99.90;;;;;;5137942;27;20539;-72
2022/06/28 00:21:57;;;;;;;0.50;0.30;;;18.90;99.90;;;;;;5138503;27;20448;-71
2022/06/28 00:24:26;;;;;;;0.50;0.30;;;18.90;99.90;;;;;;5138784;27;20479;-72
2022/06/28 00:26:53;;;;;;;0.50;0.30;;;18.90;99.90;;;;;;5138188;27;20475;-72
2022/06/28 00:29:20;;;;;;;0.47;0.30;;;18.90;95.00;;;;;;5138542;27;20475;-72
2022/06/28 00:31:47;;;;;;;0.40;0.30;;;18.80;99.90;;;;;;5138138;27;20518;-72
2022/06/28 00:34:14;;;;;;;1.33;0.30;;;18.80;99.90;;;;;;5138764;27;20534;-73
2022/06/28 00:36:41;;;;;;;0.30;0.20;;;18.90;99.90;;;;;;5138465;27;20524;-72
2022/06/28 00:39:08;;;;;;;0.50;0.30;;;19.00;99.90;;;;;;5139378;27;20480;-72
2022/06/28 00:41:37;;;;;;;0.40;0.20;;;19.10;99.90;;;;;;5139096;27;20483;-72
2022/06/28 00:44:05;;;;;;;0.40;0.20;;;19.10;99.90;;;;;;5137597;27;20575;-70
2022/06/28 00:46:34;;;;;;;0.40;0.20;;;19.20;99.90;;;;;;5139313;27;20464;-73
2022/06/28 00:49:01;;;;;;;0.43;0.30;;;19.20;99.90;;;;;;5136884;27;20625;-72
2022/06/28 00:51:28;;;;;;;0.50;0.30;;;19.30;99.90;;;;;;5135544;27;20886;-72
2022/06/28 00:53:55;;;;;;;0.67;0.40;;;19.30;96.80;;;;;;5138265;27;20913;-73
2022/06/28 00:56:23;;;;;;;0.50;0.30;;;19.30;99.90;;;;;;5138295;27;20665;-71
2022/06/28 00:58:52;;;;;;;0.50;0.30;;;19.20;99.90;;;;;;5137270;27;20480;-72
2022/06/28 01:01:20;;;;;;;0.50;0.30;;;19.20;99.90;;;;;;5137918;27;20550;-72
2022/06/28 01:03:47;;;;;;;0.60;0.30;;;19.10;99.90;;;;;;5137663;27;20530;-71
2022/06/28 01:06:14;;;;;;;0.40;0.30;;;19.20;99.90;;;;;;5138567;27;20474;-72
2022/06/28 01:08:41;;;;;;;0.80;0.20;;;19.20;99.90;;;;;;5138455;27;20475;-71
2022/06/28 01:11:19;;;;;;;0.50;0.30;;;19.20;99.90;;;;;;5138675;27;20487;-73
2022/06/28 01:13:47;;;;;;;0.50;0.30;;;19.10;99.90;;;;;;5138247;27;20448;-72
2022/06/28 01:16:18;;;;;;;0.40;0.20;;;18.90;99.90;;;;;;5137762;27;20825;-72
2022/06/28 01:18:45;;;;;;;0.33;0.20;;;19.00;99.90;;;;;;5137964;27;20497;-71
2022/06/28 01:21:14;;;;;;;0.40;0.30;;;19.00;99.90;;;;;;5135763;27;20492;-72
2022/06/28 01:23:43;;;;;;;0.40;0.30;;;19.00;99.90;;;;;;5136597;27;20478;-72
2022/06/28 01:26:11;;;;;;;0.40;0.20;;;18.90;99.90;;;;;;5138039;27;20542;-72
2022/06/28 01:28:39;;;;;;;0.40;0.30;;;18.90;99.90;;;;;;5139304;27;20547;-71
2022/06/28 01:31:06;;;;;;;0.40;0.20;;;18.90;99.90;;;;;;5138436;27;20507;-72
2022/06/28 01:33:36;;;;;;;0.40;0.20;;;18.80;99.90;;;;;;5138495;27;20543;-72
2022/06/28 01:36:03;;;;;;;0.50;0.30;;;18.60;99.90;;;;;;5138294;27;20523;-71
2022/06/28 01:38:31;;;;;;;4.33;0.40;;;18.50;99.90;;;;;;5138787;27;20444;-72
2022/06/28 01:40:59;;;;;;;0.47;0.30;;;18.50;99.90;;;;;;5137485;27;20500;-72
2022/06/28 01:43:27;;;;;;;0.40;0.30;;;18.40;99.90;;;;;;5136208;27;20838;-72
2022/06/28 01:45:55;;;;;;;0.50;0.30;;;18.30;99.90;;;;;;5136504;27;20950;-73
2022/06/28 01:48:22;;;;;;;0.70;0.30;;;18.20;99.90;;;;;;5136160;27;20452;-71
2022/06/28 01:50:50;;;;;;;0.57;0.30;;;18.10;99.90;;;;;;5136529;27;20460;-72
2022/06/28 01:53:17;;;;;;;0.40;0.27;;;18.00;99.90;;;;;;5136270;27;20483;-71
2022/06/28 01:55:44;;;;;;;0.97;0.30;;;18.00;99.90;;;;;;5135534;27;20574;-72
2022/06/28 01:58:12;;;;;;;0.40;0.30;;;18.00;99.90;;;;;;5135979;27;20906;-72
2022/06/28 02:00:39;;;;;;;0.40;0.20;;;18.00;99.90;;;;;;5136027;27;20864;-71
2022/06/28 02:03:07;;;;;;;0.40;0.30;;;18.00;99.90;;;;;;5134837;27;20448;-71
2022/06/28 02:05:35;;;;;;;0.40;0.30;;;18.00;99.90;;;;;;5133795;27;20802;-71
2022/06/28 02:08:02;;;;;;;0.50;0.30;;;18.00;99.90;;;;;;5134237;27;20535;-71
2022/06/28 02:10:29;;;;;;;0.40;0.30;;;18.10;99.90;;;;;;5134249;27;20448;-72
2022/06/28 02:12:56;;;;;;;0.50;0.20;;;18.10;99.90;;;;;;5134819;27;20478;-72
2022/06/28 02:15:24;;;;;;;0.60;0.30;;;18.10;99.90;;;;;;5135596;27;20966;-72
2022/06/28 02:17:51;;;;;;;0.43;0.20;;;18.10;99.90;;;;;;5136501;27;20474;-72
2022/06/28 02:20:18;;;;;;;0.50;0.20;;;18.10;99.90;;;;;;5137580;27;20531;-73
2022/06/28 02:22:45;;;;;;;0.43;0.30;;;18.20;99.90;;;;;;5137525;27;20480;-72
2022/06/28 02:25:12;;;;;;;0.40;0.30;;;18.10;99.90;;;;;;5136805;27;20550;-72
2022/06/28 02:27:38;;;;;;;0.50;0.40;;;18.00;99.90;;;;;;5136102;27;20489;-71
2022/06/28 02:30:07;;;;;;;0.60;0.30;;;18.10;99.90;;;;;;5135227;27;20490;-72
2022/06/28 02:32:35;;;;;;;0.50;0.30;;;18.10;99.90;;;;;;5135518;27;20436;-72
2022/06/28 02:40:31;;;;;;;0.60;0.30;;;18.20;99.90;;;;;;5135210;27;20476;-72
2022/06/28 02:42:59;;;;;;;0.47;0.27;;;18.20;99.90;;;;;;5135628;27;20486;-72
2022/06/28 02:45:29;;;;;;;0.40;0.30;;;18.20;99.90;;;;;;5135498;28;20550;-72
2022/06/28 02:47:58;;;;;;;0.93;0.30;;;18.20;99.90;;;;;;5136231;28;20534;-72
2022/06/28 02:50:25;;;;;;;0.67;0.30;;;18.10;99.90;;;;;;5136207;28;20528;-72
2022/06/28 02:52:52;;;;;;;0.50;0.30;;;18.10;99.90;;;;;;5135491;28;20467;-71
2022/06/28 02:55:19;;;;;;;0.50;0.30;;;18.00;99.90;;;;;;5135414;28;20553;-72
2022/06/28 02:57:46;;;;;;;0.50;0.30;;;17.90;99.90;;;;;;5135576;28;20951;-72
2022/06/28 03:00:15;;;;;;;0.70;0.40;;;17.90;99.90;;;;;;5135888;28;20930;-72
2022/06/28 03:02:44;;;;;;;0.50;0.30;;;17.90;99.90;;;;;;5136330;28;20448;-72
2022/06/28 03:05:15;;;;;;;0.60;0.30;;;17.90;99.90;;;;;;5137325;28;20536;-72
2022/06/28 03:07:43;;;;;;;0.60;0.33;;;17.90;99.90;;;;;;5136895;28;20827;-72
2022/06/28 03:10:11;;;;;;;0.60;0.40;;;17.90;99.90;;;;;;5136943;28;20546;-72
2022/06/28 03:12:39;;;;;;;0.43;0.30;;;17.90;99.90;;;;;;5136494;28;20871;-72
2022/06/28 03:15:07;;;;;;;0.50;0.40;;;17.80;99.90;;;;;;5138713;27;20808;-71
2022/06/28 03:17:34;;;;;;;0.70;0.40;;;17.80;99.90;;;;;;5140252;27;20479;-71
2022/06/28 03:20:00;;;;;;;0.50;0.30;;;17.70;99.90;;;;;;5139388;27;20455;-71
2022/06/28 03:22:29;;;;;;;0.50;0.30;;;17.80;99.90;;;;;;5139108;27;20540;-71
2022/06/28 03:24:57;;;;;;;1.03;0.30;;;17.80;99.90;;;;;;5139377;27;20487;-72
2022/06/28 03:27:24;;;;;;;0.60;0.40;;;17.70;99.90;;;;;;5139246;27;20436;-72
2022/06/28 03:29:51;;;;;;;0.70;0.30;;;17.60;99.90;;;;;;5139132;27;20455;-71
2022/06/28 03:32:18;;;;;;;0.43;0.30;;;17.50;99.90;;;;;;5138159;27;20451;-72
2022/06/28 03:34:45;;;;;;;0.80;0.40;;;17.50;99.90;;;;;;5138454;27;20458;-72
2022/06/28 03:37:12;;;;;;;0.60;0.30;;;17.50;99.90;;;;;;5138118;27;20590;-72
2022/06/28 03:39:41;;;;;;;0.60;0.40;;;17.40;99.90;;;;;;5138711;27;20925;-71
2022/06/28 03:42:08;;;;;;;0.60;0.40;;;17.40;99.90;;;;;;5138628;27;20440;-72
2022/06/28 03:44:35;;;;;;;0.60;0.40;;;17.40;99.90;;;;;;5138122;27;20571;-72
2022/06/28 03:47:02;;;;;;;0.50;0.40;;;17.60;99.90;;;;;;5138316;27;20547;-72
2022/06/28 03:49:29;;;;;;;0.63;0.40;;;17.80;99.90;;;;;;5138272;27;20859;-72
2022/06/28 03:51:56;;;;;;;0.50;0.40;;;17.90;99.90;;;;;;5138739;27;20540;-72
2022/06/28 03:54:24;;;;;;;0.50;0.30;;;17.90;99.90;;;;;;5139527;27;20507;-72
2022/06/28 03:56:53;;;;;;;0.93;0.40;;;17.70;99.90;;;;;;5139707;27;20558;-72
2022/06/28 03:59:19;;;;;;;3.23;0.40;;;17.80;99.90;;;;;;5138938;27;20547;-71
2022/06/28 04:01:46;;;;;;;0.60;0.40;;;17.80;99.90;;;;;;5139295;27;20486;-71
2022/06/28 04:04:13;;;;;;;0.50;0.30;;;17.90;99.90;;;;;;5139508;27;20534;-70
2022/06/28 04:06:40;;;;;;;0.50;0.30;;;17.80;99.90;;;;;;5139264;27;20455;-72
2022/06/28 04:09:07;;;;;;;0.50;0.40;;;17.80;99.90;;;;;;5137902;27;20494;-71
2022/06/28 04:11:34;;;;;;;0.60;0.40;;;18.00;99.90;;;;;;5138747;27;20803;-72
2022/06/28 04:14:03;;;;;;;0.60;0.30;;;18.20;99.90;;;;;;5139335;27;20475;-71
2022/06/28 04:16:30;;;;;;;0.70;0.40;;;18.10;99.90;;;;;;5138965;27;20522;-73
2022/06/28 04:18:56;;;;;;;0.60;0.43;;;17.90;99.90;;;;;;5139348;27;20448;-71
2022/06/28 04:21:23;;;;;;;0.53;0.40;;;17.80;99.90;;;;;;5138827;27;20481;-71
2022/06/28 04:23:50;;;;;;;0.70;0.50;;;17.80;99.90;;;;;;5139027;27;20522;-70
2022/06/28 04:26:17;;;;;;;0.60;0.40;;;17.80;99.90;;;;;;5139233;27;20496;-71
2022/06/28 04:28:44;;;;;;;0.53;0.40;;;17.90;99.90;;;;;;5139294;27;20523;-72
2022/06/28 04:31:12;;;;;;;0.57;0.30;;;17.90;99.90;;;;;;5140072;27;20554;-72
2022/06/28 04:33:39;;;;;;;1.33;0.40;;;17.90;99.90;;;;;;5139246;27;20539;-70
2022/06/28 04:36:06;;;;;;;1.20;0.40;;;17.90;99.90;;;;;;5138223;27;20520;-71
2022/06/28 04:38:34;;;;;;;0.40;0.30;;;18.20;99.90;;;;;;5137500;27;20570;-72
2022/06/28 04:41:01;;;;;;;0.60;0.40;;;18.30;99.90;;;;;;5136792;27;20558;-70
2022/06/28 04:43:28;;;;;;;0.60;0.40;;;18.30;99.90;;;;;;5136938;27;20480;-73
2022/06/28 04:45:55;;;;;;;0.80;0.43;;;18.30;99.90;;;;;;5135580;27;20534;-71
2022/06/28 04:48:24;;;;;;;0.60;0.37;;;18.40;99.90;;;;;;5136539;27;20815;-73
2022/06/28 04:50:51;;;;;;;0.57;0.40;;;18.50;99.90;;;;;;5137002;27;20459;-73
2022/06/28 04:53:18;;;;;;;0.50;0.30;;;18.70;99.90;;;;;;5136885;27;20435;-73
2022/06/28 04:55:45;;;;;;;0.60;0.40;;;18.80;99.90;;;;;;5138276;27;20456;-72
2022/06/28 04:58:12;;;;;;;0.77;0.50;;;18.90;99.90;;;;;;5138222;27;20965;-73
2022/06/28 05:00:39;;;;;;;0.77;0.40;;;19.00;99.90;;;;;;5135964;27;20876;-73
2022/06/28 05:03:06;;;;;;;0.60;0.50;;;18.80;99.90;;;;;;5137624;27;21007;-73
2022/06/28 05:05:34;;;;;;;1.00;0.50;;;18.70;99.90;;;;;;5137176;27;20809;-73
2022/06/28 05:08:04;;;;;;;0.87;0.60;;;18.60;99.90;;;;;;5138522;27;20883;-74
2022/06/28 05:10:31;;;;;;;0.80;0.53;;;18.50;99.90;;;;;;5137555;27;20848;-74
2022/06/28 05:12:58;;;;;;;0.97;0.60;;;18.50;99.90;;;;;;5137732;27;20444;-73
2022/06/28 05:15:25;;;;;;;1.63;0.70;;;18.60;99.90;;;;;;5136471;27;20863;-74
2022/06/28 05:17:52;;;;;;;5.90;0.80;;;18.50;99.90;;;;;;5135956;27;20472;-75
2022/06/28 05:20:19;;;;;;;2.00;0.70;;;18.60;99.90;;;;;;5136752;27;20869;-75
2022/06/28 05:22:47;;;;;;;1.17;0.80;;;18.70;99.90;;;;;;5137008;27;20798;-74
2022/06/28 05:25:14;;;;;;;1.47;0.80;;;18.70;99.90;;;;;;5136191;27;20631;-75
2022/06/28 05:27:41;;;;;;;1.03;0.60;;;18.90;99.90;;;;;;5136696;27;20567;-75
2022/06/28 05:30:10;;;;;;;1.20;0.80;;;19.00;99.90;;;;;;5136103;27;20671;-74
2022/06/28 05:32:37;;;;;;;1.60;0.73;;;18.80;99.90;;;;;;5136161;27;20448;-74
2022/06/28 05:35:04;;;;;;;1.10;0.83;;;18.80;99.90;;;;;;5135591;27;20475;-74
2022/06/28 05:37:31;;;;;;;1.23;0.90;;;18.90;99.90;;;;;;5132802;27;20482;-74
2022/06/28 05:39:59;;;;;;;1.00;0.80;;;18.90;99.90;;;;;;5132732;27;20491;-74
2022/06/28 05:42:26;;;;;;;1.37;0.80;;;19.10;99.90;;;;;;5134164;27;20444;-75
2022/06/28 05:44:53;;;;;;;1.37;1.00;;;19.20;99.90;;;;;;5134750;27;20472;-75
2022/06/28 05:47:20;;;;;;;2.73;1.20;;;19.40;99.90;;;;;;5133939;27;20543;-74
2022/06/28 05:49:47;;;;;;;1.40;1.00;;;19.30;99.90;;;;;;5133892;27;20490;-75
2022/06/28 05:52:14;;;;;;;2.33;0.90;;;19.20;99.90;;;;;;5134343;27;20479;-75
2022/06/28 05:54:41;;;;;;;1.57;0.80;;;19.20;99.90;;;;;;5116006;27;20458;-75
2022/06/28 05:57:10;;;;;;;0.97;0.80;;;19.30;99.90;;;;;;5092621;28;20540;-75
2022/06/28 05:59:37;;;;;;;1.50;0.90;;;19.30;99.90;;;;;;5093381;28;20569;-74
2022/06/28 06:02:05;;;;;;;1.13;0.90;;;19.40;99.90;;;;;;5093975;28;20473;-75
2022/06/28 06:04:32;;;;;;;1.30;0.90;;;19.30;99.90;;;;;;5093873;28;20479;-76
2022/06/28 06:06:59;;;;;;;1.20;0.90;;;19.40;99.90;;;;;;5091346;28;20449;-73
2022/06/28 06:09:27;;;;;;;2.03;0.80;;;19.60;99.90;;;;;;5090732;28;20820;-74
2022/06/28 06:11:54;;;;;;;2.77;1.47;;;19.60;99.90;;;;;;5092870;28;20508;-73
2022/06/28 06:14:22;;;;;;;3.20;1.40;;;19.70;99.90;;;;;;5093810;28;20453;-74
2022/06/28 06:16:50;;;;;;;1.87;1.00;;;19.60;94.20;;;;;;5094543;28;20568;-73
2022/06/28 06:19:17;;;;;;;1.30;1.00;;;19.40;99.90;;;;;;5095050;28;20888;-73
2022/06/28 06:21:44;;;;;;;1.50;1.00;;;19.50;99.90;;;;;;5095430;28;20536;-73
2022/06/28 06:24:11;;;;;;;2.10;0.97;;;19.60;98.80;;;;;;5095300;28;20792;-73
2022/06/28 06:26:38;;;;;;;1.87;1.00;;;19.70;99.90;;;;;;5117050;27;20494;-73
2022/06/28 06:29:05;;;;;;;1.50;0.90;;;19.80;82.30;;;;;;5117775;27;20433;-73
2022/06/28 06:31:34;;;;;;;1.10;0.87;;;19.80;66.30;;;;;;5114058;28;20536;-73
2022/06/28 06:34:01;;;;;;;1.33;1.10;;;19.80;82.80;;;;;;5118780;27;20965;-73
2022/06/28 06:36:28;;;;;;;1.40;1.00;;;19.90;73.60;;;;;;5114491;28;20548;-72
2022/06/28 06:38:55;;;;;;;1.47;1.00;;;20.00;58.00;;;;;;5114992;28;20953;-72
2022/06/28 06:41:22;;;;;;;2.10;0.97;;;19.90;44.00;;;;;;5115685;28;20523;-73
2022/06/28 06:43:49;;;;;;;1.60;1.00;;;19.80;72.50;;;;;;5123999;28;20568;-73
2022/06/28 06:46:16;;;;;;;1.50;1.00;;;19.90;67.90;;;;;;5134307;27;20534;-74
2022/06/28 06:48:46;;;;;;;1.20;0.90;;;19.90;63.30;;;;;;5132668;27;20475;-73
2022/06/28 06:51:12;;;;;;;2.50;1.00;;;19.90;66.20;;;;;;5133469;27;20538;-71
2022/06/28 06:53:39;;;;;;;3.50;1.07;;;20.00;77.70;;;;;;5132994;27;20527;-74
2022/06/28 06:56:06;;;;;;;1.10;0.90;;;19.90;66.70;;;;;;5133569;27;20467;-73
2022/06/28 06:58:33;;;;;;;5.07;1.00;;;19.90;58.40;;;;;;5133409;27;20515;-71
2022/06/28 07:01:00;;;;;;;1.37;1.10;;;19.80;68.80;;;;;;5132696;27;21028;-71
2022/06/28 07:03:27;;;;;;;1.20;1.10;;;19.60;71.80;;;;;;5133709;27;20455;-72
2022/06/28 07:05:55;;;;;;;1.57;0.90;;;19.50;94.60;;;;;;5133388;27;20991;-71
2022/06/28 07:08:22;;;;;;;1.40;0.90;;;19.50;95.80;;;;;;5132575;27;20538;-71
2022/06/28 07:10:49;;;;;;;1.30;0.90;;;19.40;95.80;;;;;;5132157;27;20476;-73
2022/06/28 07:13:16;;;;;;;3.33;0.90;;;19.40;99.90;;;;;;5133608;27;20546;-72
2022/06/28 07:15:44;;;;;;;1.20;1.00;;;19.30;99.90;;;;;;5133044;27;20463;-71
2022/06/28 07:18:11;;;;;;;1.20;0.90;;;19.40;99.90;;;;;;5129237;28;20479;-72
2022/06/28 07:20:39;;;;;;;1.30;1.10;;;19.50;99.90;;;;;;5120015;27;20797;-73
2022/06/28 07:23:07;;;;;;;2.83;1.10;;;19.60;99.90;;;;;;5123164;28;20551;-72
2022/06/28 07:25:34;;;;;;;1.40;1.20;;;19.70;95.10;;;;;;5134819;27;20471;-73
2022/06/28 07:28:02;;;;;;;1.27;1.00;;;19.70;94.70;;;;;;5133231;27;20534;-74
2022/06/28 07:30:29;;;;;;;1.30;0.97;;;19.70;99.90;;;;;;5123940;27;20449;-72
2022/06/28 07:32:55;;;;;;;1.60;1.30;;;19.70;99.90;;;;;;5121351;28;20854;-73
2022/06/28 07:35:24;;;;;;;1.30;1.10;;;19.70;98.80;;;;;;5133677;28;20574;-73
2022/06/28 07:37:52;;;;;;;2.47;1.10;;;19.50;99.90;;;;;;5120711;28;20479;-73
2022/06/28 07:40:21;;;;;;;2.30;1.07;;;19.60;99.90;;;;;;5134509;27;20527;-74
2022/06/28 07:42:48;;;;;;;1.50;1.13;;;19.70;99.90;;;;;;5136044;28;20772;-72
2022/06/28 07:45:15;;;;;;;1.93;1.13;;;20.00;96.70;;;;;;5134842;27;20471;-74
2022/06/28 07:47:47;;;;;;;1.77;1.10;;;20.10;80.50;;;;;;5135508;27;20490;-73
2022/06/28 07:53:01;;;;;;;2.03;1.00;;;20.50;58.90;;;;;;5133616;28;20442;-74
2022/06/28 07:55:30;;;;;;;2.30;1.60;;;20.60;55.50;;;;;;5134867;27;20444;-73
2022/06/28 07:57:58;;;;;;;1.20;0.93;;;20.80;38.10;;;;;;5135586;27;20999;-71
2022/06/28 08:00:26;;;;;;;2.30;2.07;;;20.80;20.90;;;;;;5137089;27;20522;-73
2022/06/28 08:02:53;;;;;;;1.20;1.00;;;20.90;9.00;;;;;;5138276;27;20830;-74
2022/06/28 08:05:20;;;;;;;1.33;1.00;;;21.10;1.00;;;;;;5138860;27;20962;-74
2022/06/28 08:07:48;;;;;;;1.17;0.90;;;21.10;1.00;;;;;;5124382;27;20558;-73
2022/06/28 08:10:15;;;;;;;1.40;1.10;;;21.30;1.00;;;;;;5133494;27;20471;-72
2022/06/28 08:12:44;;;;;;;1.57;1.00;;;21.20;1.00;;;;;;5139027;27;20516;-72
2022/06/28 08:15:12;;;;;;;1.77;1.00;;;21.30;1.00;;;;;;5118150;28;20481;-73
2022/06/28 08:17:39;;;;;;;1.37;0.90;;;21.50;1.00;;;;;;5118477;28;20480;-74
2022/06/28 08:20:07;;;;;;;1.40;1.00;;;21.50;1.00;;;;;;5135633;27;20796;-74
2022/06/28 08:22:35;;;;;;;1.20;1.00;;;21.60;1.00;;;;;;5138698;27;20551;-73
2022/06/28 08:25:02;;;;;;;1.40;1.10;;;21.60;1.00;;;;;;5120014;27;20452;-74
2022/06/28 08:27:29;;;;;;;2.50;1.40;;;21.60;1.00;;;;;;5134386;27;20455;-72
2022/06/28 08:29:58;;;;;;;1.30;1.10;;;21.70;1.00;;;;;;5136821;27;20509;-72
2022/06/28 08:32:25;;;;;;;1.37;0.93;;;21.50;1.00;;;;;;5136044;27;20965;-73
2022/06/28 08:34:52;;;;;;;1.50;1.00;;;21.60;1.00;;;;;;5134468;27;20472;-74
2022/06/28 08:37:20;;;;;;;1.10;0.90;;;21.60;1.00;;;;;;5118427;28;20545;-74
2022/06/28 08:39:47;;;;;;;1.07;0.80;;;21.50;1.00;;;;;;5125738;27;20984;-73
2022/06/28 08:42:21;;;;;;;2.90;1.00;;;21.60;1.00;;;;;;5138519;27;20495;-73
2022/06/28 08:44:49;;;;;;;1.10;0.80;;;21.50;1.00;;;;;;5137108;27;20483;-73
2022/06/28 08:47:20;;;;;;;1.43;0.93;;;21.60;1.00;;;;;;5126261;27;20480;-72
2022/06/28 08:49:54;;;;;;;0.80;0.70;;;21.60;1.00;;;;;;5138183;27;20866;-72
2022/06/28 08:52:23;;;;;;;1.00;0.90;;;21.60;1.00;;;;;;5130366;27;20454;-72
2022/06/28 08:54:51;;;;;;;1.20;0.87;;;21.50;1.00;;;;;;5135888;27;20543;-73
2022/06/28 08:57:20;;;;;;;1.03;0.80;;;21.30;1.00;;;;;;5136257;27;21003;-72
2022/06/28 08:59:48;;;;;;;1.30;1.00;;;21.70;1.00;;;;;;5131356;27;20476;-72
2022/06/28 09:02:17;;;;;;;1.20;0.87;;;22.10;1.00;;;;;;5131940;27;20976;-72
2022/06/28 09:04:49;;;;;;;2.03;0.80;;;22.00;1.00;;;;;;5136408;27;20436;-71
2022/06/28 09:07:16;;;;;;;1.40;1.00;;;22.20;1.00;;;;;;5136737;27;20451;-72
2022/06/28 09:09:46;;;;;;;0.87;0.70;;;22.60;1.00;;;;;;5135786;27;20436;-72
2022/06/28 09:12:14;;;;;;;0.70;0.70;;;22.60;1.00;;;;;;5135239;27;20471;-73
2022/06/28 09:14:41;;;;;;;0.90;0.70;;;22.80;1.00;;;;;;5133698;27;21070;-72
2022/06/28 09:17:21;;;;;;;0.90;0.60;;;23.10;1.00;;;;;;5136304;27;20460;-73
2022/06/28 09:19:50;;;;;;;1.07;0.70;;;23.20;99.90;;;;;;5134741;27;21000;-70
2022/06/28 09:22:31;;;;;;;0.70;0.60;;;23.30;99.90;;;;;;5136237;27;20455;-72
2022/06/28 09:24:59;;;;;;;3.70;0.97;;;23.00;1.00;;;;;;5137657;27;20511;-72
2022/06/28 09:27:31;;;;;;;0.83;0.60;;;23.30;1.00;;;;;;5136777;27;20495;-72
2022/06/28 09:29:59;;;;;;;0.73;0.60;;;23.60;1.00;;;;;;5136903;27;20516;-73
2022/06/28 09:32:29;;;;;;;0.80;0.70;;;23.70;1.00;;;;;;5136074;27;20483;-73
2022/06/28 09:34:58;;;;;;;0.80;0.70;;;23.60;99.90;;;;;;5136284;27;20460;-71
2022/06/28 09:37:38;;;;;;;2.23;0.60;;;23.20;1.00;;;;;;5135554;27;20451;-73
2022/06/28 09:40:14;;;;;;;0.80;0.60;;;23.10;1.00;;;;;;5134557;27;20972;-72
2022/06/28 09:42:41;;;;;;;0.60;0.50;;;23.30;99.90;;;;;;5134379;27;20451;-72
2022/06/28 09:45:10;;;;;;;0.70;0.60;;;23.50;1.00;;;;;;5152244;27;20517;-73
2022/06/28 09:47:44;;;;;;;0.70;0.50;;;23.60;1.00;;;;;;5154881;27;20546;-73
2022/06/28 09:50:13;;;;;;;0.70;0.60;;;23.50;99.90;;;;;;5153392;27;20447;-73
2022/06/28 09:52:45;;;;;;;1.03;0.67;;;23.40;1.00;;;;;;5131497;27;20452;-71
2022/06/28 09:55:15;;;;;;;1.00;0.70;;;23.40;1.00;;;;;;5134375;27;20436;-73
2022/06/28 09:57:44;;;;;;;0.93;0.50;;;23.40;1.00;;;;;;5133504;27;20551;-72
2022/06/28 10:00:12;;;;;;;0.80;0.60;;;23.10;99.90;;;;;;5132983;27;20479;-73
2022/06/28 10:02:42;;;;;;;0.70;0.60;;;23.20;99.90;;;;;;5134178;27;20483;-71
2022/06/28 10:05:10;;;;;;;0.80;0.60;;;23.50;1.00;;;;;;5134459;27;20534;-73
2022/06/28 10:07:38;;;;;;;1.20;0.70;;;23.40;99.90;;;;;;5135270;27;20491;-72
2022/06/28 10:10:07;;;;;;;0.70;0.50;;;23.60;1.00;;;;;;5135055;27;20526;-71
2022/06/28 10:15:20;;;;;;;0.73;0.50;;;23.80;99.90;;;;;;5133191;27;20418;-72
2022/06/28 10:17:57;;;;;;;4.40;1.03;;;24.00;95.90;;;;;;5135229;27;20550;-72
2022/06/28 10:20:27;;;;;;;2.20;0.80;;;24.30;1.00;;;;;;5134951;27;20440;-73
2022/06/28 10:23:14;;;;;;;0.67;0.60;;;24.50;1.00;;;;;;5133171;27;20508;-73
2022/06/28 10:25:41;;;;;;;1.20;0.90;;;24.50;99.90;;;;;;5134911;27;20809;-71
2022/06/28 10:28:27;;;;;;;0.70;0.50;;;24.70;94.70;;;;;;5134594;27;20459;-72
2022/06/28 10:31:32;;;;;;;0.70;0.50;;;25.00;99.90;;;;;;5135660;27;20448;-72
2022/06/28 10:34:02;;;;;;;0.80;0.60;;;24.90;1.00;;;;;;5135014;27;20514;-72
2022/06/28 10:36:32;;;;;;;0.60;0.50;;;25.00;1.00;;;;;;5133544;27;20436;-71
2022/06/28 10:39:23;;;;;;;0.70;0.60;;;25.30;1.00;;;;;;5135420;27;20475;-71
2022/06/28 10:41:51;;;;;;;0.70;0.60;;;25.40;1.00;;;;;;5123516;27;20491;-71
2022/06/28 10:44:21;;;;;;;1.00;0.57;;;25.20;1.00;;;;;;5125227;27;20475;-71
2022/06/28 10:47:10;;;;;;;0.70;0.60;;;24.30;99.90;;;;;;5128238;27;20456;-70
2022/06/28 10:52:33;;;;;;;1.30;0.80;;;24.40;5.40;;;;;;5131334;27;20517;-73
2022/06/28 10:55:22;;;;;;;1.13;0.60;;;25.30;1.00;;;;;;5132368;27;20493;-72
2022/06/28 10:57:49;;;;;;;0.90;0.53;;;25.20;1.00;;;;;;5130515;27;20452;-72
2022/06/28 11:00:26;;;;;;;0.80;0.50;;;25.10;1.00;;;;;;5130999;27;20455;-72
2022/06/28 11:03:01;;;;;;;0.80;0.60;;;25.40;1.00;;;;;;5132528;27;20504;-72
2022/06/28 11:05:47;;;;;;;2.80;2.37;;;25.20;1.00;;;;;;5132154;27;20448;-73
2022/06/28 11:08:54;;;;;;;2.33;2.03;;;25.00;1.00;;;;;;5132017;27;20621;-72
2022/06/28 11:11:21;;;;;;;0.70;0.50;;;25.00;1.00;;;;;;5067388;28;20965;-73
2022/06/28 11:13:49;;;;;;;0.90;0.67;;;25.10;1.00;;;;;;5067272;28;20877;-73
2022/06/28 11:16:47;;;;;;;0.70;0.50;;;25.30;1.00;;;;;;5065612;28;20461;-72
2022/06/28 11:19:14;;;;;;;1.83;0.53;;;25.60;99.90;;;;;;5066507;28;20478;-72
2022/06/28 11:21:43;;;;;;;0.60;0.43;;;25.50;99.90;;;;;;5068950;27;20470;-73
2022/06/28 11:24:12;;;;;;;1.70;0.40;;;25.80;99.90;;;;;;5131818;27;20444;-71
2022/06/28 11:29:27;;;;;;;1.50;0.53;;;26.20;99.90;;;;;;5130490;28;20415;-73
2022/06/28 11:31:55;;;;;;;0.80;0.60;;;26.30;93.50;;;;;;5131187;27;20601;-71
2022/06/28 11:34:25;;;;;;;0.70;0.50;;;26.20;99.90;;;;;;5131314;27;20505;-70
2022/06/28 11:36:56;;;;;;;1.30;0.90;;;26.20;99.90;;;;;;5123988;27;20451;-71
2022/06/28 11:39:25;;;;;;;0.60;0.40;;;25.90;99.90;;;;;;5133199;27;20462;-71
2022/06/28 11:41:54;;;;;;;0.50;0.30;;;25.20;99.90;;;;;;5149209;27;20940;-71
2022/06/28 11:44:22;;;;;;;0.57;0.50;;;25.30;99.90;;;;;;5137406;27;20445;-71
2022/06/28 11:46:51;;;;;;;1.23;0.40;;;25.20;99.90;;;;;;5132222;27;20935;-71
2022/06/28 11:49:26;;;;;;;1.40;0.70;;;25.20;99.90;;;;;;5130402;27;20666;-72
2022/06/28 11:51:53;;;;;;;0.50;0.40;;;25.20;99.90;;;;;;5110558;28;20791;-71
2022/06/28 11:54:21;;;;;;;0.80;0.40;;;25.40;99.90;;;;;;5128746;27;20491;-73
2022/06/28 11:56:49;;;;;;;0.50;0.40;;;25.30;99.90;;;;;;5129479;27;20452;-72
2022/06/28 11:59:17;;;;;;;1.30;0.60;;;25.30;99.90;;;;;;5128718;27;20484;-71
2022/06/28 12:01:45;;;;;;;1.23;0.50;;;25.50;99.90;;;;;;5129742;27;20495;-71
2022/06/28 12:04:20;;;;;;;0.60;0.40;;;25.70;35.10;;;;;;5115469;28;20453;-71
2022/06/28 12:06:47;;;;;;;0.53;0.40;;;25.60;48.60;;;;;;5115154;28;20494;-71
2022/06/28 12:09:15;;;;;;;0.50;0.40;;;25.40;99.90;;;;;;5115472;28;20475;-71
2022/06/28 12:11:45;;;;;;;0.60;0.40;;;25.50;99.90;;;;;;5113586;28;20509;-70
2022/06/28 12:14:15;;;;;;;0.50;0.40;;;25.60;99.90;;;;;;5114775;27;20449;-70
2022/06/28 12:16:46;;;;;;;0.70;0.40;;;26.00;65.10;;;;;;5114713;28;20945;-71
2022/06/28 12:19:14;;;;;;;0.73;0.40;;;26.40;1.00;;;;;;5115080;28;20448;-70
2022/06/28 12:22:01;;;;;;;0.50;0.40;;;26.50;1.00;;;;;;5113914;28;20504;-71
2022/06/28 12:24:43;;;;;;;0.57;0.40;;;26.20;1.00;;;;;;5116219;28;20454;-72
2022/06/28 12:27:12;;;;;;;0.77;0.47;;;25.90;31.00;;;;;;5116429;28;20481;-73
2022/06/28 12:29:41;;;;;;;0.53;0.40;;;25.70;1.00;;;;;;5114630;28;20432;-72
2022/06/28 12:32:09;;;;;;;0.53;0.40;;;25.50;99.90;;;;;;5114416;28;20608;-73
2022/06/28 12:34:37;;;;;;;0.60;0.33;;;25.70;23.80;;;;;;5114993;27;20452;-72
2022/06/28 12:37:05;;;;;;;0.60;0.43;;;25.80;1.00;;;;;;5115182;27;21085;-73
2022/06/28 12:39:32;;;;;;;4.47;3.20;;;26.10;1.00;;;;;;5114794;27;20507;-71
2022/06/28 12:41:59;;;;;;;0.60;0.40;;;26.10;1.00;;;;;;5115109;28;20511;-71
2022/06/28 12:44:25;;;;;;;0.50;0.40;;;26.20;1.00;;;;;;5113622;28;20506;-72
2022/06/28 12:46:54;;;;;;;0.50;0.40;;;26.10;1.00;;;;;;5112555;28;20548;-71
2022/06/28 12:49:21;;;;;;;0.70;0.40;;;25.80;27.00;;;;;;5114659;28;20456;-71
2022/06/28 12:51:48;;;;;;;0.50;0.30;;;25.60;1.00;;;;;;5113551;28;20583;-71
2022/06/28 12:54:16;;;;;;;1.07;0.60;;;25.50;1.00;;;;;;5113812;28;20839;-71
2022/06/28 12:56:43;;;;;;;0.80;0.50;;;25.50;1.00;;;;;;5114071;28;20512;-71
2022/06/28 12:59:10;;;;;;;5.53;3.57;;;25.60;16.10;;;;;;5113829;28;20444;-71
2022/06/28 13:01:37;;;;;;;1.30;0.97;;;25.70;99.90;;;;;;5114402;28;20544;-71
2022/06/28 13:04:06;;;;;;;10.07;6.30;;;26.00;1.00;;;;;;5113809;28;20524;-71
2022/06/28 13:06:35;;;;;;;0.80;0.50;;;26.10;1.00;;;;;;5114122;28;20730;-71
2022/06/28 13:09:02;;;;;;;0.70;0.60;;;25.90;1.00;;;;;;5113579;28;20805;-70
2022/06/28 13:11:29;;;;;;;0.73;0.60;;;25.90;1.00;;;;;;5113389;28;20906;-71
2022/06/28 13:13:58;;;;;;;0.70;0.40;;;26.00;1.00;;;;;;5110960;28;20451;-70
2022/06/28 13:16:28;;;;;;;0.60;0.40;;;26.20;1.00;;;;;;5112427;28;20453;-69
2022/06/28 13:18:55;;;;;;;1.80;0.40;;;26.40;1.00;;;;;;5113721;28;20493;-72